createdAt,value
2019-05-22T04:47:58.473Z,57.13
2019-05-22T04:50:25.929Z,57.45
2019-05-22T04:52:52.710Z,58.28
2019-05-22T04:55:20.294Z,60.90
2019-05-22T04:57:47.660Z,52.20
2019-05-22T05:00:16.053Z,51.08
2019-05-22T05:02:43.030Z,56.30
2019-05-22T05:05:11.107Z,58.58
2019-05-22T05:07:59.918Z,51.53
2019-05-22T05:10:26.907Z,55.15
2019-05-22T05:12:57.244Z,50.25
2019-05-22T05:15:23.937Z,48.70
2019-05-22T05:17:51.215Z,49.63
2019-05-22T05:20:22.555Z,50.52
2019-05-22T05:22:47.974Z,49.27
2019-05-22T05:25:16.398Z,46.58
2019-05-22T05:27:43.994Z,41.80
2019-05-22T05:30:13.081Z,47.83
2019-05-22T05:32:40.375Z,49.38
2019-05-22T05:35:08.468Z,44.55
2019-05-22T05:37:35.927Z,44.10
2019-05-22T05:40:35.504Z,43.60
2019-05-22T05:43:03.316Z,42.90
2019-05-22T05:45:32.011Z,40.28
2019-05-22T05:47:59.583Z,40.50
2019-05-22T05:50:38.812Z,41.55
2019-05-22T05:52:57.714Z,44.23
2019-05-22T05:55:28.022Z,46.25
2019-05-22T05:58:25.831Z,40.55
2019-05-22T06:00:55.805Z,42.30
2019-05-22T06:03:37.984Z,42.25
2019-05-22T06:07:00.082Z,44.60
2019-05-22T06:09:26.705Z,43.80
2019-05-22T06:11:56.271Z,45.75
2019-05-22T06:14:26.659Z,46.25
2019-05-22T06:17:51.088Z,40.28
2019-05-22T06:20:18.563Z,32.67
2019-05-22T06:23:25.717Z,37.00
2019-05-22T06:25:52.839Z,32.90
2019-05-22T06:28:19.602Z,33.92
2019-05-22T06:30:46.592Z,33.45
2019-05-22T06:33:44.366Z,28.35
2019-05-22T06:36:17.793Z,31.80
2019-05-22T06:38:51.695Z,31.68
2019-05-22T06:41:19.515Z,31.40
2019-05-22T06:44:36.635Z,36.88
2019-05-22T06:47:06.245Z,37.25
2019-05-22T06:49:38.687Z,31.10
2019-05-22T06:52:27.243Z,37.23
2019-05-22T06:54:55.146Z,33.00
2019-05-22T06:57:26.498Z,31.00
2019-05-22T07:00:12.467Z,29.57
2019-05-22T07:02:27.310Z,28.92
2019-05-22T07:05:15.509Z,35.68
2019-05-22T07:07:42.491Z,25.48
2019-05-22T07:10:11.925Z,23.70
2019-05-22T07:15:49.626Z,24.95
2019-05-22T07:18:23.497Z,23.62
2019-05-22T07:20:51.681Z,26.68
2019-05-22T07:23:27.871Z,22.62
2019-05-22T07:25:56.884Z,25.75
2019-05-22T07:28:24.785Z,23.10
2019-05-22T07:30:51.947Z,23.73
2019-05-22T07:33:18.753Z,22.70
2019-05-22T07:36:05.516Z,25.40
2019-05-22T07:38:16.388Z,19.92
2019-05-22T07:40:43.674Z,25.68
2019-05-22T07:43:10.595Z,24.27
2019-05-22T07:45:37.891Z,21.93
2019-05-22T07:48:07.304Z,23.62
2019-05-22T07:50:37.777Z,21.05
2019-05-22T07:53:05.762Z,19.45
2019-05-22T07:55:33.355Z,18.48
2019-05-22T07:58:04.902Z,15.65
2019-05-22T08:00:32.088Z,16.80
2019-05-22T08:02:59.236Z,14.65
2019-05-22T08:05:27.922Z,12.35
2019-05-22T08:07:57.804Z,13.70
2019-05-22T08:10:25.020Z,10.53
2019-05-22T08:12:52.368Z,11.45
2019-05-22T08:15:20.672Z,11.53
2019-05-22T08:17:47.527Z,13.10
2019-05-22T08:20:14.821Z,11.35
2019-05-22T08:22:42.700Z,12.53
2019-05-22T08:25:09.788Z,12.05
2019-05-22T08:27:36.666Z,11.30
2019-05-22T08:30:04.300Z,13.80
2019-05-22T08:32:31.764Z,12.82
2019-05-22T08:34:59.157Z,13.20
2019-05-22T08:37:30.417Z,13.95
2019-05-22T08:39:57.918Z,13.45
2019-05-22T08:42:25.411Z,13.48
2019-05-22T08:44:52.144Z,12.98
2019-05-22T08:47:19.951Z,10.68
2019-05-22T08:49:46.747Z,13.40
2019-05-22T08:52:23.105Z,13.10
2019-05-22T08:54:46.133Z,10.15
2019-05-22T08:57:13.158Z,12.73
2019-05-22T08:59:41.819Z,12.85
2019-05-22T09:02:08.604Z,10.85
2019-05-22T09:04:35.653Z,11.10
2019-05-22T09:07:02.328Z,10.20
2019-05-22T09:09:29.760Z,9.78
2019-05-22T09:11:56.620Z,11.97
2019-05-22T09:14:23.525Z,10.72
2019-05-22T09:16:51.285Z,11.73
2019-05-22T09:19:19.262Z,15.75
2019-05-22T09:21:46.445Z,17.37
2019-05-22T09:24:16.459Z,18.25
2019-05-22T09:26:44.138Z,18.92
2019-05-22T09:29:10.945Z,17.67
2019-05-22T09:31:38.031Z,14.05
2019-05-22T09:34:04.831Z,19.98
2019-05-22T09:36:32.286Z,15.90
2019-05-22T09:38:59.073Z,23.35
2019-05-22T09:41:26.623Z,15.08
2019-05-22T09:43:53.441Z,12.60
2019-05-22T09:46:20.462Z,12.85
2019-05-22T09:48:48.049Z,10.75
2019-05-22T09:51:14.937Z,11.78
2019-05-22T09:53:42.704Z,9.80
2019-05-22T09:56:09.995Z,9.55
2019-05-22T09:58:38.180Z,12.13
2019-05-22T10:01:06.302Z,10.28
2019-05-22T10:03:33.484Z,9.63
2019-05-22T10:06:02.717Z,9.03
2019-05-22T10:08:29.863Z,12.28
2019-05-22T10:10:56.949Z,11.40
2019-05-22T10:13:23.685Z,9.25
2019-05-22T10:15:51.135Z,11.38
2019-05-22T10:18:18.255Z,11.63
2019-05-22T10:20:45.421Z,10.85
2019-05-22T10:23:15.974Z,9.03
2019-05-22T10:25:41.207Z,7.85
2019-05-22T10:28:08.276Z,8.60
2019-05-22T10:30:36.334Z,7.53
2019-05-22T10:33:03.405Z,7.03
2019-05-22T10:35:33.126Z,10.30
2019-05-22T10:37:59.998Z,11.33
2019-05-22T10:40:27.481Z,8.08
2019-05-22T10:42:55.730Z,8.43
2019-05-22T10:45:22.535Z,8.43
2019-05-22T10:47:49.486Z,14.63
2019-05-22T10:50:16.505Z,10.15
2019-05-22T10:52:53.687Z,10.45
2019-05-22T10:55:18.317Z,12.40
2019-05-22T10:57:45.032Z,9.85
2019-05-22T11:00:14.462Z,13.32
2019-05-22T11:02:42.909Z,14.95
2019-05-22T11:05:10.400Z,12.28
2019-05-22T11:07:37.223Z,8.93
2019-05-22T11:10:05.240Z,10.95
2019-05-22T11:12:31.922Z,12.80
2019-05-22T11:17:47.037Z,11.38
2019-05-22T11:20:16.295Z,9.88
2019-05-22T11:22:43.470Z,12.68
2019-05-22T11:25:13.141Z,11.50
2019-05-22T11:28:01.611Z,10.47
2019-05-22T11:30:28.672Z,14.95
2019-05-22T11:32:56.168Z,11.93
2019-05-22T11:35:23.955Z,17.57
2019-05-22T11:37:50.911Z,12.15
2019-05-22T11:40:19.803Z,11.85
2019-05-22T11:42:47.495Z,10.78
2019-05-22T11:45:15.281Z,10.25
2019-05-22T11:47:42.329Z,9.93
2019-05-22T11:50:10.405Z,12.63
2019-05-22T11:52:37.523Z,9.68
2019-05-22T11:55:05.203Z,11.28
2019-05-22T11:57:33.319Z,11.20
2019-05-22T12:00:00.109Z,10.38
2019-05-22T12:02:27.198Z,8.65
2019-05-22T12:04:53.954Z,11.93
2019-05-22T12:07:21.083Z,9.18
2019-05-22T12:09:48.301Z,10.50
2019-05-22T12:12:15.711Z,11.38
2019-05-22T12:14:42.873Z,11.95
2019-05-22T12:17:10.994Z,11.28
2019-05-22T12:19:38.770Z,9.90
2019-05-22T12:22:07.162Z,13.35
2019-05-22T12:24:37.202Z,9.43
2019-05-22T12:27:04.167Z,11.30
2019-05-22T12:29:31.239Z,13.28
2019-05-22T12:31:58.023Z,11.57
2019-05-22T12:34:25.060Z,10.50
2019-05-22T12:36:51.955Z,12.35
2019-05-22T12:39:20.502Z,12.15
2019-05-22T12:41:47.999Z,10.08
2019-05-22T12:44:17.588Z,9.65
2019-05-22T12:46:44.407Z,9.63
2019-05-22T12:49:12.994Z,11.85
2019-05-22T12:51:40.185Z,11.08
2019-05-22T12:54:07.839Z,10.82
2019-05-22T12:56:34.630Z,10.45
2019-05-22T12:59:02.304Z,9.38
2019-05-22T13:01:30.717Z,11.20
2019-05-22T13:03:58.555Z,8.58
2019-05-22T13:06:25.747Z,8.20
2019-05-22T13:08:54.563Z,8.93
2019-05-22T13:11:26.073Z,8.00
2019-05-22T13:13:53.008Z,7.85
2019-05-22T13:16:19.991Z,8.60
2019-05-22T13:18:46.799Z,8.13
2019-05-22T13:21:17.990Z,8.10
2019-05-22T13:23:46.371Z,9.45
2019-05-22T13:26:14.843Z,10.58
2019-05-22T13:28:44.085Z,9.25
2019-05-22T13:31:11.036Z,8.63
2019-05-22T13:33:39.427Z,10.78
2019-05-22T13:36:06.223Z,9.70
2019-05-22T13:38:33.503Z,6.55
2019-05-22T13:41:00.976Z,7.78
2019-05-22T13:43:28.051Z,6.28
2019-05-22T13:45:55.217Z,6.53
2019-05-22T13:48:21.981Z,6.92
2019-05-22T13:50:49.414Z,7.28
2019-05-22T13:53:17.310Z,8.60
2019-05-22T13:55:44.808Z,7.70
2019-05-22T13:58:12.008Z,5.47
2019-05-22T14:00:39.391Z,5.55
2019-05-22T14:03:07.117Z,6.37
2019-05-22T14:05:34.752Z,7.33
2019-05-22T14:08:02.144Z,6.10
2019-05-22T14:10:30.720Z,6.10
2019-05-22T14:12:57.814Z,7.15
2019-05-22T14:15:24.978Z,6.12
2019-05-22T14:17:51.868Z,8.65
2019-05-22T14:23:13.808Z,5.15
2019-05-22T14:25:40.859Z,6.97
2019-05-22T14:28:08.151Z,6.67
2019-05-22T14:30:35.005Z,6.00
2019-05-22T14:33:04.875Z,6.58
2019-05-22T14:35:47.480Z,4.90
2019-05-22T14:38:04.351Z,4.60
2019-05-22T14:40:31.308Z,4.45
2019-05-22T14:42:58.095Z,7.40
2019-05-22T14:45:24.961Z,5.90
2019-05-22T14:47:51.796Z,6.45
2019-05-22T14:50:20.105Z,5.47
2019-05-22T14:52:47.275Z,6.62
2019-05-22T14:55:15.367Z,4.53
2019-05-22T14:57:42.134Z,4.87
2019-05-22T15:00:11.904Z,4.95
2019-05-22T15:02:38.674Z,3.98
2019-05-22T15:05:06.146Z,6.75
2019-05-22T15:07:32.960Z,6.47
2019-05-22T15:09:59.759Z,7.72
2019-05-22T15:12:27.131Z,9.50
2019-05-22T15:14:53.932Z,5.03
2019-05-22T15:17:31.602Z,6.95
2019-05-22T15:19:49.410Z,7.47
2019-05-22T15:22:16.474Z,4.67
2019-05-22T15:24:43.633Z,4.47
2019-05-22T15:27:11.822Z,7.00
2019-05-22T15:29:38.592Z,9.98
2019-05-22T15:32:05.576Z,6.45
2019-05-22T15:34:33.324Z,4.97
2019-05-22T15:37:00.771Z,7.15
2019-05-22T15:39:30.058Z,6.03
2019-05-22T15:41:58.594Z,5.30
2019-05-22T15:44:26.282Z,6.15
2019-05-22T15:46:53.055Z,5.20
2019-05-22T15:49:20.445Z,7.60
2019-05-22T15:51:48.014Z,4.72
2019-05-22T15:54:17.113Z,8.20
2019-05-22T15:56:46.060Z,7.30
2019-05-22T15:59:16.111Z,5.45
2019-05-22T16:01:44.844Z,4.72
2019-05-22T16:04:15.055Z,6.90
2019-05-22T16:09:12.620Z,5.53
2019-05-22T16:14:06.835Z,5.37
2019-05-22T16:16:35.390Z,4.47
2019-05-22T16:19:04.667Z,6.15
2019-05-22T16:21:32.854Z,5.25
2019-05-22T16:24:00.559Z,5.70
2019-05-22T16:26:29.272Z,4.83
2019-05-22T16:28:57.155Z,7.28
2019-05-22T16:31:25.619Z,4.95
2019-05-22T16:33:53.592Z,3.47
2019-05-22T16:36:22.305Z,3.95
2019-05-22T16:38:51.182Z,5.67
2019-05-22T16:41:19.094Z,4.85
2019-05-22T16:43:50.171Z,5.80
2019-05-22T16:46:19.903Z,5.70
2019-05-22T16:48:48.065Z,4.20
2019-05-22T16:51:16.961Z,5.25
2019-05-22T16:53:49.938Z,8.90
2019-05-22T16:56:17.798Z,6.90
2019-05-22T16:58:44.550Z,4.35
2019-05-22T17:01:11.334Z,5.53
2019-05-22T17:03:38.306Z,5.47
2019-05-22T17:06:06.142Z,5.37
2019-05-22T17:08:33.019Z,3.67
2019-05-22T17:11:00.973Z,5.92
2019-05-22T17:13:28.693Z,6.80
2019-05-22T17:15:56.410Z,7.40
2019-05-22T17:18:23.814Z,4.95
2019-05-22T17:20:51.133Z,5.22
2019-05-22T17:23:17.910Z,4.65
2019-05-22T17:25:44.805Z,7.50
2019-05-22T17:28:11.849Z,5.30
2019-05-22T17:30:39.454Z,5.78
2019-05-22T17:33:06.970Z,6.35
2019-05-22T17:35:34.426Z,4.72
2019-05-22T17:38:03.120Z,6.37
2019-05-22T17:40:31.321Z,7.12
2019-05-22T17:42:58.602Z,4.17
2019-05-22T17:45:27.554Z,6.05
2019-05-22T17:47:55.396Z,6.90
2019-05-22T17:50:27.127Z,4.58
2019-05-22T17:55:20.134Z,6.03
2019-05-22T17:57:47.082Z,6.47
2019-05-22T18:00:24.643Z,5.72
2019-05-22T18:02:51.413Z,6.62
2019-05-22T18:05:18.895Z,5.40
2019-05-22T18:07:46.259Z,5.00
2019-05-22T18:10:13.847Z,4.33
2019-05-22T18:12:41.213Z,11.57
2019-05-22T18:15:10.354Z,3.60
2019-05-22T18:17:37.903Z,8.00
2019-05-22T18:20:05.141Z,5.33
2019-05-22T18:22:32.395Z,10.72
2019-05-22T18:24:59.879Z,8.80
2019-05-22T18:27:26.975Z,6.50
2019-05-22T18:29:53.854Z,6.85
2019-05-22T18:32:20.644Z,8.15
2019-05-22T18:34:47.331Z,4.97
2019-05-22T18:37:14.088Z,3.80
2019-05-22T18:39:40.781Z,4.10
2019-05-22T18:42:07.760Z,4.72
2019-05-22T18:44:34.420Z,5.75
2019-05-22T18:47:01.338Z,7.87
2019-05-22T18:49:28.025Z,6.08
2019-05-22T18:51:54.827Z,4.83
2019-05-22T18:54:21.584Z,3.95
2019-05-22T18:56:48.262Z,3.95
2019-05-22T18:59:15.124Z,6.75
2019-05-22T19:01:41.905Z,5.67
2019-05-22T19:04:08.692Z,7.92
2019-05-22T19:06:35.522Z,6.62
2019-05-22T19:09:03.938Z,4.37
2019-05-22T19:11:31.019Z,4.40
2019-05-22T19:13:57.822Z,4.95
2019-05-22T19:16:24.578Z,3.95
2019-05-22T19:18:51.431Z,4.20
2019-05-22T19:21:18.256Z,3.55
2019-05-22T19:23:45.091Z,6.03
2019-05-22T19:26:11.887Z,7.55
2019-05-22T19:28:43.989Z,6.37
2019-05-22T19:31:08.370Z,5.60
2019-05-22T19:33:35.349Z,7.85
2019-05-22T19:36:03.037Z,5.72
2019-05-22T19:38:29.900Z,3.60
2019-05-22T19:40:57.308Z,6.03
2019-05-22T19:43:24.391Z,3.77
2019-05-22T19:45:51.229Z,3.62
2019-05-22T19:48:18.082Z,5.67
2019-05-22T19:50:45.275Z,3.40
2019-05-22T19:53:18.948Z,3.45
2019-05-22T19:55:41.278Z,7.05
2019-05-22T19:58:08.578Z,6.20
2019-05-22T20:00:38.717Z,5.78
2019-05-22T20:03:05.743Z,3.55
2019-05-22T20:05:34.612Z,5.17
2019-05-22T20:08:01.587Z,8.40
2019-05-22T20:10:28.303Z,7.60
2019-05-22T20:12:55.442Z,5.55
2019-05-22T20:15:22.209Z,5.87
2019-05-22T20:22:58.793Z,6.12
2019-05-22T20:25:26.168Z,5.53
2019-05-22T20:27:53.716Z,8.48
2019-05-22T20:30:22.108Z,5.62
2019-05-22T20:32:49.391Z,8.25
2019-05-22T20:35:16.991Z,11.03
2019-05-22T20:37:45.777Z,5.35
2019-05-22T20:40:15.058Z,8.05
2019-05-22T20:42:43.584Z,7.85
2019-05-22T20:45:12.512Z,4.60
2019-05-22T20:47:41.286Z,8.03
2019-05-22T20:50:09.541Z,4.20
2019-05-22T20:52:37.718Z,5.55
2019-05-22T20:55:06.368Z,6.35
2019-05-22T20:57:33.073Z,4.65
2019-05-22T21:02:50.123Z,6.25
2019-05-22T21:05:19.814Z,5.45
2019-05-22T21:07:49.194Z,5.43
2019-05-22T21:10:16.872Z,9.90
2019-05-22T21:12:45.838Z,9.85
2019-05-22T21:15:13.424Z,8.60
2019-05-22T21:17:40.533Z,4.12
2019-05-22T21:20:10.084Z,6.53
2019-05-22T21:22:37.923Z,7.03
2019-05-22T21:25:06.012Z,10.53
2019-05-22T21:27:33.350Z,7.90
2019-05-22T21:30:00.042Z,5.78
2019-05-22T21:32:26.633Z,7.58
2019-05-22T21:34:54.520Z,9.10
2019-05-22T21:37:21.986Z,9.28
2019-05-22T21:39:50.001Z,4.87
2019-05-22T21:42:17.384Z,5.45
2019-05-22T21:44:44.110Z,7.70
2019-05-22T21:47:12.996Z,8.48
2019-05-22T21:49:40.278Z,8.35
2019-05-22T21:52:07.741Z,6.53
2019-05-22T21:54:35.629Z,8.93
2019-05-22T21:57:04.314Z,10.78
2019-05-22T21:59:31.012Z,13.58
2019-05-22T22:02:12.609Z,10.13
2019-05-22T22:04:40.623Z,11.90
2019-05-22T22:07:08.790Z,9.93
2019-05-22T22:09:35.824Z,9.85
2019-05-22T22:12:03.508Z,13.03
2019-05-22T22:14:30.803Z,18.90
2019-05-22T22:16:59.348Z,6.20
2019-05-22T22:19:28.327Z,7.83
2019-05-22T22:21:55.440Z,5.60
2019-05-22T22:24:22.672Z,6.45
2019-05-22T22:26:49.798Z,9.10
2019-05-22T22:29:16.814Z,9.28
2019-05-22T22:31:45.287Z,7.75
2019-05-22T22:34:18.440Z,9.75
2019-05-22T22:36:46.689Z,12.33
2019-05-22T22:39:14.669Z,10.32
2019-05-22T22:41:42.215Z,16.45
2019-05-22T22:44:09.598Z,11.03
2019-05-22T22:46:42.602Z,15.20
2019-05-22T22:49:14.052Z,11.65
2019-05-22T22:51:40.800Z,12.82
2019-05-22T22:54:07.491Z,15.10
2019-05-22T22:56:34.823Z,13.22
2019-05-22T22:59:03.604Z,9.83
2019-05-22T23:01:52.865Z,9.68
2019-05-22T23:04:23.806Z,10.93
2019-05-22T23:07:12.637Z,10.85
2019-05-22T23:09:41.966Z,13.85
2019-05-22T23:12:09.229Z,12.43
2019-05-22T23:14:39.881Z,10.75
2019-05-22T23:19:38.155Z,13.88
2019-05-22T23:22:05.244Z,10.45
2019-05-22T23:24:36.824Z,13.50
2019-05-22T23:27:06.080Z,14.85
2019-05-22T23:29:34.165Z,12.05
2019-05-22T23:32:01.738Z,13.68
2019-05-22T23:34:28.655Z,11.08
2019-05-22T23:36:57.427Z,10.70
2019-05-22T23:39:25.903Z,11.28
2019-05-22T23:41:56.503Z,12.55
2019-05-22T23:49:31.904Z,15.72
2019-05-22T23:51:58.566Z,11.50
2019-05-22T23:54:26.670Z,10.75
2019-05-22T23:56:53.527Z,13.60
2019-05-22T23:59:20.611Z,16.00
